sensor_id;sensor_type;location;lat;lon;timestamp;pressure;altitude;pressure_sealevel;temperature;humidity
48796;BME280;34607;48.520;-1.330;2023-02-21T08:19:32;100474.09;;;5.39;100.00
48796;BME280;34607;48.520;-1.330;2023-02-21T08:21:59;100452.69;;;5.39;100.00
48796;BME280;34607;48.520;-1.330;2023-02-21T08:24:26;100473.19;;;5.60;100.00
48796;BME280;34607;48.520;-1.330;2023-02-21T08:26:53;100466.53;;;5.65;100.00
48796;BME280;34607;48.520;-1.330;2023-02-21T08:29:20;100473.00;;;5.78;100.00
48796;BME280;34607;48.520;-1.330;2023-02-21T08:31:47;100466.47;;;5.86;100.00
48796;BME280;34607;48.520;-1.330;2023-02-21T08:34:15;100471.31;;;6.01;100.00
48796;BME280;34607;48.520;-1.330;2023-02-21T08:36:43;100470.81;;;6.11;100.00
48796;BME280;34607;48.520;-1.330;2023-02-21T08:39:10;100443.09;;;6.03;100.00
48796;BME280;34607;48.520;-1.330;2023-02-21T08:41:40;100471.56;;;6.31;100.00
48796;BME280;34607;48.520;-1.330;2023-02-21T08:44:08;100469.97;;;6.35;100.00
48796;BME280;34607;48.520;-1.330;2023-02-21T08:46:36;100466.41;;;6.31;100.00
48796;BME280;34607;48.520;-1.330;2023-02-21T08:49:04;100463.22;;;6.38;100.00
48796;BME280;34607;48.520;-1.330;2023-02-21T08:51:32;100465.19;;;6.46;100.00
48796;BME280;34607;48.520;-1.330;2023-02-21T08:54:01;100463.75;;;6.54;100.00
48796;BME280;34607;48.520;-1.330;2023-02-21T08:56:29;100461.19;;;6.54;100.00
48796;BME280;34607;48.520;-1.330;2023-02-21T08:58:56;100457.06;;;6.59;100.00
48796;BME280;34607;48.520;-1.330;2023-02-21T09:01:23;100449.69;;;6.70;100.00
48796;BME280;34607;48.520;-1.330;2023-02-21T09:03:56;100444.16;;;6.83;100.00
48796;BME280;34607;48.520;-1.330;2023-02-21T09:06:23;100448.00;;;6.96;100.00
48796;BME280;34607;48.520;-1.330;2023-02-21T09:08:50;100439.81;;;7.08;100.00
48796;BME280;34607;48.520;-1.330;2023-02-21T09:11:18;100443.63;;;7.21;100.00
48796;BME280;34607;48.520;-1.330;2023-02-21T09:13:45;100441.47;;;7.35;100.00
48796;BME280;34607;48.520;-1.330;2023-02-21T09:16:13;100439.00;;;7.38;99.54
48796;BME280;34607;48.520;-1.330;2023-02-21T09:18:40;100444.97;;;7.37;99.26
48796;BME280;34607;48.520;-1.330;2023-02-21T09:21:07;100447.00;;;7.47;99.75
48796;BME280;34607;48.520;-1.330;2023-02-21T09:23:34;100447.41;;;7.59;99.28
48796;BME280;34607;48.520;-1.330;2023-02-21T09:26:01;100454.63;;;7.73;99.21
48796;BME280;34607;48.520;-1.330;2023-02-21T09:28:29;100447.84;;;7.75;98.36
48796;BME280;34607;48.520;-1.330;2023-02-21T09:30:56;100454.94;;;7.82;98.84
48796;BME280;34607;48.520;-1.330;2023-02-21T09:33:24;100444.78;;;7.88;98.82
48796;BME280;34607;48.520;-1.330;2023-02-21T09:35:51;100448.44;;;7.96;98.65
48796;BME280;34607;48.520;-1.330;2023-02-21T09:38:21;100438.22;;;7.99;98.45
48796;BME280;34607;48.520;-1.330;2023-02-21T09:40:51;100437.75;;;8.13;98.85
48796;BME280;34607;48.520;-1.330;2023-02-21T09:43:26;100430.25;;;8.22;98.27
48796;BME280;34607;48.520;-1.330;2023-02-21T09:45:59;100427.16;;;8.35;98.46
48796;BME280;34607;48.520;-1.330;2023-02-21T09:48:27;100428.47;;;8.51;98.10
48796;BME280;34607;48.520;-1.330;2023-02-21T09:50:57;100427.09;;;8.64;97.89
48796;BME280;34607;48.520;-1.330;2023-02-21T09:53:26;100391.13;;;8.72;97.42
48796;BME280;34607;48.520;-1.330;2023-02-21T09:55:58;100421.16;;;9.05;96.71
48796;BME280;34607;48.520;-1.330;2023-02-21T09:58:26;100421.56;;;9.22;96.59
48796;BME280;34607;48.520;-1.330;2023-02-21T10:00:57;100421.88;;;9.35;96.04
48796;BME280;34607;48.520;-1.330;2023-02-21T10:03:39;100409.22;;;9.46;95.52
48796;BME280;34607;48.520;-1.330;2023-02-21T10:06:19;100408.75;;;9.66;95.60
48796;BME280;34607;48.520;-1.330;2023-02-21T10:08:56;100409.84;;;9.77;95.43
48796;BME280;34607;48.520;-1.330;2023-02-21T10:11:32;100408.25;;;9.82;95.02
48796;BME280;34607;48.520;-1.330;2023-02-21T10:14:15;100406.53;;;9.84;94.62
48796;BME280;34607;48.520;-1.330;2023-02-21T10:16:51;100391.63;;;9.71;94.77
48796;BME280;34607;48.520;-1.330;2023-02-21T10:19:24;100398.88;;;9.89;95.20
48796;BME280;34607;48.520;-1.330;2023-02-21T10:21:54;100407.53;;;9.91;95.21
48796;BME280;34607;48.520;-1.330;2023-02-21T10:24:25;100402.50;;;9.99;95.60
48796;BME280;34607;48.520;-1.330;2023-02-21T10:26:57;100402.09;;;10.23;95.42
48796;BME280;34607;48.520;-1.330;2023-02-21T10:29:29;100388.78;;;10.47;95.11
48796;BME280;34607;48.520;-1.330;2023-02-21T10:32:02;100393.97;;;10.47;94.73
48796;BME280;34607;48.520;-1.330;2023-02-21T10:34:31;100385.72;;;10.70;95.16
48796;BME280;34607;48.520;-1.330;2023-02-21T10:37:03;100386.09;;;10.96;94.60
48796;BME280;34607;48.520;-1.330;2023-02-21T10:39:41;100387.25;;;11.15;94.25
48796;BME280;34607;48.520;-1.330;2023-02-21T10:42:19;100363.19;;;11.25;93.72
48796;BME280;34607;48.520;-1.330;2023-02-21T10:44:51;100366.00;;;11.40;93.02
48796;BME280;34607;48.520;-1.330;2023-02-21T10:47:26;100386.91;;;11.53;92.88
48796;BME280;34607;48.520;-1.330;2023-02-21T10:49:59;100382.59;;;11.55;92.98
48796;BME280;34607;48.520;-1.330;2023-02-21T10:52:27;100345.06;;;11.25;93.00
48796;BME280;34607;48.520;-1.330;2023-02-21T10:55:02;100357.28;;;11.35;93.01
48796;BME280;34607;48.520;-1.330;2023-02-21T10:57:30;100373.03;;;11.51;92.85
48796;BME280;34607;48.520;-1.330;2023-02-21T11:00:00;100376.59;;;11.57;92.95
48796;BME280;34607;48.520;-1.330;2023-02-21T11:02:37;100368.97;;;11.71;92.62
48796;BME280;34607;48.520;-1.330;2023-02-21T11:05:12;100369.06;;;11.77;92.10
48796;BME280;34607;48.520;-1.330;2023-02-21T11:07:41;100361.34;;;11.84;92.52
48796;BME280;34607;48.520;-1.330;2023-02-21T11:10:30;100357.81;;;11.78;92.10
48796;BME280;34607;48.520;-1.330;2023-02-21T11:13:06;100357.81;;;11.78;92.51
48796;BME280;34607;48.520;-1.330;2023-02-21T11:15:38;100344.19;;;11.95;92.48
48796;BME280;34607;48.520;-1.330;2023-02-21T11:18:14;100353.88;;;12.13;91.98
48796;BME280;34607;48.520;-1.330;2023-02-21T11:20:42;100306.28;;;12.09;91.12
48796;BME280;34607;48.520;-1.330;2023-02-21T11:23:21;100326.63;;;12.63;90.24
48796;BME280;34607;48.520;-1.330;2023-02-21T11:25:53;100322.44;;;12.80;89.55
48796;BME280;34607;48.520;-1.330;2023-02-21T11:28:22;100330.34;;;12.97;89.05
48796;BME280;34607;48.520;-1.330;2023-02-21T11:31:04;100313.03;;;13.01;89.07
48796;BME280;34607;48.520;-1.330;2023-02-21T11:33:37;100301.75;;;12.97;88.40
48796;BME280;34607;48.520;-1.330;2023-02-21T11:36:09;100270.25;;;12.52;88.41
48796;BME280;34607;48.520;-1.330;2023-02-21T11:38:39;100302.47;;;12.74;89.09
48796;BME280;34607;48.520;-1.330;2023-02-21T11:41:16;100292.13;;;12.82;88.68
48796;BME280;34607;48.520;-1.330;2023-02-21T11:43:48;100279.09;;;12.76;88.31
48796;BME280;34607;48.520;-1.330;2023-02-21T11:46:33;100315.53;;;12.84;87.86
48796;BME280;34607;48.520;-1.330;2023-02-21T11:49:07;100310.34;;;12.87;88.92
48796;BME280;34607;48.520;-1.330;2023-02-21T11:51:40;100303.50;;;13.03;89.08
48796;BME280;34607;48.520;-1.330;2023-02-21T11:54:10;100305.28;;;13.10;88.32
48796;BME280;34607;48.520;-1.330;2023-02-21T11:56:43;100296.66;;;13.22;88.63
48796;BME280;34607;48.520;-1.330;2023-02-21T11:59:21;100295.91;;;13.44;88.02
48796;BME280;34607;48.520;-1.330;2023-02-21T12:01:56;100216.00;;;13.05;87.00
48796;BME280;34607;48.520;-1.330;2023-02-21T12:04:42;100275.00;;;13.24;86.63
48796;BME280;34607;48.520;-1.330;2023-02-21T12:07:21;100267.28;;;13.34;87.47
48796;BME280;34607;48.520;-1.330;2023-02-21T12:09:59;100262.97;;;13.46;87.75
48796;BME280;34607;48.520;-1.330;2023-02-21T12:12:36;100256.09;;;13.59;86.96
48796;BME280;34607;48.520;-1.330;2023-02-21T12:15:13;100227.44;;;13.47;86.90
48796;BME280;34607;48.520;-1.330;2023-02-21T12:17:54;100250.88;;;13.59;86.60
48796;BME280;34607;48.520;-1.330;2023-02-21T12:20:42;100250.00;;;13.54;87.07
48796;BME280;34607;48.520;-1.330;2023-02-21T12:23:18;100235.25;;;13.47;87.19
48796;BME280;34607;48.520;-1.330;2023-02-21T12:26:06;100247.38;;;13.49;87.23
48796;BME280;34607;48.520;-1.330;2023-02-21T12:28:53;100220.47;;;13.32;87.48
48796;BME280;34607;48.520;-1.330;2023-02-21T12:31:31;100245.66;;;13.45;87.31
48796;BME280;34607;48.520;-1.330;2023-02-21T12:34:12;100251.72;;;13.49;87.41
48796;BME280;34607;48.520;-1.330;2023-02-21T12:37:00;100252.59;;;13.49;87.81
48796;BME280;34607;48.520;-1.330;2023-02-21T12:39:43;100196.19;;;13.38;87.43
48796;BME280;34607;48.520;-1.330;2023-02-21T12:42:35;100229.22;;;13.73;86.91
48796;BME280;34607;48.520;-1.330;2023-02-21T12:45:18;100221.44;;;13.94;87.00
48796;BME280;34607;48.520;-1.330;2023-02-21T12:47:53;100204.06;;;13.96;86.43
48796;BME280;34607;48.520;-1.330;2023-02-21T12:50:24;100211.00;;;14.08;86.08
48796;BME280;34607;48.520;-1.330;2023-02-21T12:52:57;100198.88;;;14.05;86.65
48796;BME280;34607;48.520;-1.330;2023-02-21T12:55:31;100209.25;;;14.35;86.43
48796;BME280;34607;48.520;-1.330;2023-02-21T12:58:03;100204.88;;;14.46;85.94
48796;BME280;34607;48.520;-1.330;2023-02-21T13:00:40;100208.41;;;14.34;86.26
48796;BME280;34607;48.520;-1.330;2023-02-21T13:03:22;100203.19;;;14.34;86.39
48796;BME280;34607;48.520;-1.330;2023-02-21T13:05:57;100210.13;;;14.31;86.78
48796;BME280;34607;48.520;-1.330;2023-02-21T13:08:33;100190.19;;;14.14;86.46
48796;BME280;34607;48.520;-1.330;2023-02-21T13:11:10;100200.56;;;14.20;86.78
48796;BME280;34607;48.520;-1.330;2023-02-21T13:13:38;100186.72;;;14.12;86.92
48796;BME280;34607;48.520;-1.330;2023-02-21T13:16:08;100188.44;;;14.16;86.96
48796;BME280;34607;48.520;-1.330;2023-02-21T13:18:40;100184.09;;;14.04;87.06
48796;BME280;34607;48.520;-1.330;2023-02-21T13:21:19;100188.47;;;14.07;87.58
48796;BME280;34607;48.520;-1.330;2023-02-21T13:23:56;100180.66;;;14.07;87.68
48796;BME280;34607;48.520;-1.330;2023-02-21T13:29:44;100146.81;;;14.04;87.50
48796;BME280;34607;48.520;-1.330;2023-02-21T13:32:13;100160.66;;;14.24;87.56
48796;BME280;34607;48.520;-1.330;2023-02-21T13:34:45;100153.69;;;14.27;87.53
48796;BME280;34607;48.520;-1.330;2023-02-21T13:37:18;100167.56;;;14.46;87.43
48796;BME280;34607;48.520;-1.330;2023-02-21T13:39:49;100150.16;;;14.51;87.28
48796;BME280;34607;48.520;-1.330;2023-02-21T13:42:19;100151.03;;;14.54;87.45
48796;BME280;34607;48.520;-1.330;2023-02-21T13:44:49;100146.69;;;14.63;87.11
48796;BME280;34607;48.520;-1.330;2023-02-21T13:47:20;100146.69;;;14.53;85.51
48796;BME280;34607;48.520;-1.330;2023-02-21T13:49:52;100131.94;;;14.55;85.06
48796;BME280;34607;48.520;-1.330;2023-02-21T13:52:49;100116.28;;;14.66;84.13
48796;BME280;34607;48.520;-1.330;2023-02-21T13:55:26;100103.22;;;14.75;82.47
48796;BME280;34607;48.520;-1.330;2023-02-21T14:07:39;100113.56;;;14.88;79.72
48796;BME280;34607;48.520;-1.330;2023-02-21T14:10:17;100104.00;;;14.93;79.67
48796;BME280;34607;48.520;-1.330;2023-02-21T14:12:53;100114.44;;;14.90;79.37
48796;BME280;34607;48.520;-1.330;2023-02-21T14:15:21;100100.56;;;14.85;79.28
48796;BME280;34607;48.520;-1.330;2023-02-21T14:17:50;100102.25;;;14.90;79.47
48796;BME280;34607;48.520;-1.330;2023-02-21T14:20:19;100094.31;;;15.10;79.74
48796;BME280;34607;48.520;-1.330;2023-02-21T14:22:49;100090.88;;;15.07;79.18
48796;BME280;34607;48.520;-1.330;2023-02-21T14:25:21;100096.94;;;15.04;78.82
48796;BME280;34607;48.520;-1.330;2023-02-21T14:27:51;100096.16;;;14.96;79.27
48796;BME280;34607;48.520;-1.330;2023-02-21T14:30:29;100097.84;;;15.03;78.85
48796;BME280;34607;48.520;-1.330;2023-02-21T14:33:06;100074.47;;;14.85;79.29
48796;BME280;34607;48.520;-1.330;2023-02-21T14:35:37;100104.00;;;14.87;79.75
48796;BME280;34607;48.520;-1.330;2023-02-21T14:38:17;100082.38;;;14.71;80.61
48796;BME280;34607;48.520;-1.330;2023-02-21T14:41:01;100075.41;;;14.76;80.23
48796;BME280;34607;48.520;-1.330;2023-02-21T14:43:51;100093.72;;;14.62;79.88
48796;BME280;34607;48.520;-1.330;2023-02-21T14:49:35;100090.97;;;14.85;81.26
48796;BME280;34607;48.520;-1.330;2023-02-21T14:52:41;100089.28;;;14.75;81.09
48796;BME280;34607;48.520;-1.330;2023-02-21T14:55:35;100085.94;;;14.50;81.35
48796;BME280;34607;48.520;-1.330;2023-02-21T14:58:28;100093.75;;;14.40;82.11
48796;BME280;34607;48.520;-1.330;2023-02-21T15:01:07;100102.47;;;14.26;82.50
48796;BME280;34607;48.520;-1.330;2023-02-21T15:03:42;100105.97;;;14.20;82.83
48796;BME280;34607;48.520;-1.330;2023-02-21T15:06:13;100095.59;;;14.08;83.08
48796;BME280;34607;48.520;-1.330;2023-02-21T15:08:45;100086.94;;;13.93;83.40
48796;BME280;34607;48.520;-1.330;2023-02-21T15:11:25;100099.06;;;14.00;83.52
48796;BME280;34607;48.520;-1.330;2023-02-21T15:14:13;100093.88;;;13.94;83.93
48796;BME280;34607;48.520;-1.330;2023-02-21T15:16:51;100087.81;;;13.91;84.33
48796;BME280;34607;48.520;-1.330;2023-02-21T15:19:26;100099.09;;;13.88;84.61
48796;BME280;34607;48.520;-1.330;2023-02-21T15:22:15;100085.19;;;13.86;84.76
48796;BME280;34607;48.520;-1.330;2023-02-21T15:24:58;100078.28;;;13.79;85.15
48796;BME280;34607;48.520;-1.330;2023-02-21T15:27:25;100071.34;;;13.78;85.62
48796;BME280;34607;48.520;-1.330;2023-02-21T15:30:05;100062.69;;;13.66;85.79
48796;BME280;34607;48.520;-1.330;2023-02-21T15:32:35;100082.63;;;13.69;86.05
48796;BME280;34607;48.520;-1.330;2023-02-21T15:35:03;100033.19;;;13.30;86.42
48796;BME280;34607;48.520;-1.330;2023-02-21T15:37:33;100063.56;;;13.44;86.72
48796;BME280;34607;48.520;-1.330;2023-02-21T15:40:05;99996.75;;;12.93;86.97
48796;BME280;34607;48.520;-1.330;2023-02-21T15:42:38;100028.88;;;13.13;87.00
48796;BME280;34607;48.520;-1.330;2023-02-21T15:45:07;100051.38;;;13.26;87.41
48796;BME280;34607;48.520;-1.330;2023-02-21T15:47:37;100061.78;;;13.29;87.52
48796;BME280;34607;48.520;-1.330;2023-02-21T15:50:06;100053.97;;;13.24;88.02
48796;BME280;34607;48.520;-1.330;2023-02-21T15:52:35;100059.19;;;13.21;88.15
48796;BME280;34607;48.520;-1.330;2023-02-21T15:55:14;100058.31;;;13.08;88.49
48796;BME280;34607;48.520;-1.330;2023-02-21T15:57:42;100046.16;;;13.09;88.75
48796;BME280;34607;48.520;-1.330;2023-02-21T16:00:19;100040.13;;;13.11;89.13
48796;BME280;34607;48.520;-1.330;2023-02-21T16:02:51;100036.63;;;13.14;89.45
48796;BME280;34607;48.520;-1.330;2023-02-21T16:05:23;100017.56;;;13.09;89.64
48796;BME280;34607;48.520;-1.330;2023-02-21T16:07:50;100014.97;;;12.98;90.30
48796;BME280;34607;48.520;-1.330;2023-02-21T16:10:21;100000.25;;;12.96;90.60
48796;BME280;34607;48.520;-1.330;2023-02-21T16:12:55;99984.63;;;12.83;91.50
48796;BME280;34607;48.520;-1.330;2023-02-21T16:15:25;99971.63;;;12.62;92.90
48796;BME280;34607;48.520;-1.330;2023-02-21T16:17:55;99968.13;;;12.49;93.85
48796;BME280;34607;48.520;-1.330;2023-02-21T16:20:27;99972.44;;;12.45;94.33
48796;BME280;34607;48.520;-1.330;2023-02-21T16:23:18;99949.03;;;12.30;94.04
48796;BME280;34607;48.520;-1.330;2023-02-21T16:25:56;99972.47;;;12.54;93.96
48796;BME280;34607;48.520;-1.330;2023-02-21T16:28:23;99950.78;;;12.39;94.87
48796;BME280;34607;48.520;-1.330;2023-02-21T16:30:51;99990.66;;;12.64;94.92
48796;BME280;34607;48.520;-1.330;2023-02-21T16:33:21;99956.00;;;12.48;94.86
48796;BME280;34607;48.520;-1.330;2023-02-21T16:35:48;99985.47;;;12.56;95.24
48796;BME280;34607;48.520;-1.330;2023-02-21T16:38:17;99998.47;;;12.56;94.99
48796;BME280;34607;48.520;-1.330;2023-02-21T16:40:46;99981.09;;;12.41;94.81
48796;BME280;34607;48.520;-1.330;2023-02-21T16:43:18;100020.94;;;12.46;94.79
48796;BME280;34607;48.520;-1.330;2023-02-21T16:45:46;99987.91;;;12.11;95.49
48796;BME280;34607;48.520;-1.330;2023-02-21T16:48:16;99994.81;;;12.11;95.72
48796;BME280;34607;48.520;-1.330;2023-02-21T16:50:48;99992.25;;;12.15;95.81
48796;BME280;34607;48.520;-1.330;2023-02-21T16:53:16;99997.44;;;12.12;95.87
48796;BME280;34607;48.520;-1.330;2023-02-21T16:55:44;100006.06;;;12.05;96.30
48796;BME280;34607;48.520;-1.330;2023-02-21T16:58:18;99989.56;;;11.97;96.21
48796;BME280;34607;48.520;-1.330;2023-02-21T17:00:49;99978.31;;;11.92;96.35
48796;BME280;34607;48.520;-1.330;2023-02-21T17:03:16;99989.59;;;11.98;96.16
48796;BME280;34607;48.520;-1.330;2023-02-21T17:05:46;99958.34;;;11.85;96.09
48796;BME280;34607;48.520;-1.330;2023-02-21T17:08:14;99988.72;;;11.96;96.38
48796;BME280;34607;48.520;-1.330;2023-02-21T17:10:41;99959.19;;;11.82;96.48
48796;BME280;34607;48.520;-1.330;2023-02-21T17:13:08;99979.19;;;11.97;96.21
48796;BME280;34607;48.520;-1.330;2023-02-21T17:15:35;99951.41;;;11.84;96.21
48796;BME280;34607;48.520;-1.330;2023-02-21T17:18:02;99984.38;;;11.97;96.40
48796;BME280;34607;48.520;-1.330;2023-02-21T17:20:30;99978.31;;;11.93;96.73
48796;BME280;34607;48.520;-1.330;2023-02-21T17:22:58;99925.41;;;11.62;96.72
48796;BME280;34607;48.520;-1.330;2023-02-21T17:25:27;99985.16;;;11.85;96.79
48796;BME280;34607;48.520;-1.330;2023-02-21T17:27:55;99996.41;;;11.89;96.94
48796;BME280;34607;48.520;-1.330;2023-02-21T17:30:23;100005.88;;;11.80;97.10
48796;BME280;34607;48.520;-1.330;2023-02-21T17:32:51;100018.84;;;11.80;97.53
48796;BME280;34607;48.520;-1.330;2023-02-21T17:35:20;100019.69;;;11.76;97.34
48796;BME280;34607;48.520;-1.330;2023-02-21T17:37:49;100033.44;;;11.63;97.62
48796;BME280;34607;48.520;-1.330;2023-02-21T17:40:19;100030.78;;;11.54;98.40
48796;BME280;34607;48.520;-1.330;2023-02-21T17:42:46;100035.94;;;11.49;98.47
48796;BME280;34607;48.520;-1.330;2023-02-21T17:45:16;100041.09;;;11.41;98.99
48796;BME280;34607;48.520;-1.330;2023-02-21T17:47:44;100031.53;;;11.37;99.15
48796;BME280;34607;48.520;-1.330;2023-02-21T17:50:12;100028.03;;;11.34;99.53
48796;BME280;34607;48.520;-1.330;2023-02-21T17:52:39;100017.63;;;11.31;99.28
48796;BME280;34607;48.520;-1.330;2023-02-21T17:55:09;100017.66;;;11.34;99.27
48796;BME280;34607;48.520;-1.330;2023-02-21T17:57:39;100022.81;;;11.28;99.53
48796;BME280;34607;48.520;-1.330;2023-02-21T18:00:08;100021.00;;;11.20;100.00
48796;BME280;34607;48.520;-1.330;2023-02-21T18:02:38;100021.00;;;11.16;100.00
48796;BME280;34607;48.520;-1.330;2023-02-21T18:05:06;100015.81;;;11.14;100.00
48796;BME280;34607;48.520;-1.330;2023-02-21T18:07:34;100027.00;;;11.12;100.00
48796;BME280;34607;48.520;-1.330;2023-02-21T18:10:02;100019.13;;;11.01;100.00
48796;BME280;34607;48.520;-1.330;2023-02-21T18:12:30;100025.22;;;11.06;100.00
48796;BME280;34607;48.520;-1.330;2023-02-21T18:15:00;100026.03;;;11.00;100.00
48796;BME280;34607;48.520;-1.330;2023-02-21T18:17:28;100028.56;;;10.94;100.00
48796;BME280;34607;48.520;-1.330;2023-02-21T18:19:55;100025.03;;;10.86;100.00
48796;BME280;34607;48.520;-1.330;2023-02-21T18:22:22;100030.19;;;10.81;100.00
48796;BME280;34607;48.520;-1.330;2023-02-21T18:24:49;100022.28;;;10.71;100.00
48796;BME280;34607;48.520;-1.330;2023-02-21T18:27:16;100029.19;;;10.70;100.00
48796;BME280;34607;48.520;-1.330;2023-02-21T18:29:44;99964.13;;;10.38;100.00
48796;BME280;34607;48.520;-1.330;2023-02-21T18:32:13;100018.78;;;10.65;100.00
48796;BME280;34607;48.520;-1.330;2023-02-21T18:34:41;100017.06;;;10.64;100.00
48796;BME280;34607;48.520;-1.330;2023-02-21T18:37:08;100023.03;;;10.60;100.00
48796;BME280;34607;48.520;-1.330;2023-02-21T18:39:35;100018.66;;;10.53;100.00
48796;BME280;34607;48.520;-1.330;2023-02-21T18:42:03;100026.38;;;10.47;100.00
48796;BME280;34607;48.520;-1.330;2023-02-21T18:44:30;99989.69;;;10.13;100.00
48796;BME280;34607;48.520;-1.330;2023-02-21T18:46:57;100031.41;;;10.38;100.00
48796;BME280;34607;48.520;-1.330;2023-02-21T18:49:27;100029.69;;;10.38;100.00
48796;BME280;34607;48.520;-1.330;2023-02-21T18:51:57;100042.63;;;10.35;100.00
48796;BME280;34607;48.520;-1.330;2023-02-21T18:54:25;100028.63;;;10.24;100.00
48796;BME280;34607;48.520;-1.330;2023-02-21T18:56:53;100024.28;;;10.20;100.00
48796;BME280;34607;48.520;-1.330;2023-02-21T18:59:21;100041.63;;;10.28;100.00
48796;BME280;34607;48.520;-1.330;2023-02-21T19:01:48;100032.94;;;10.23;100.00
48796;BME280;34607;48.520;-1.330;2023-02-21T19:04:15;100033.88;;;10.28;100.00
48796;BME280;34607;48.520;-1.330;2023-02-21T19:06:44;100038.16;;;10.28;100.00
48796;BME280;34607;48.520;-1.330;2023-02-21T19:09:12;100045.06;;;10.27;100.00
48796;BME280;34607;48.520;-1.330;2023-02-21T19:11:39;100046.81;;;10.30;100.00
48796;BME280;34607;48.520;-1.330;2023-02-21T19:14:07;100040.00;;;10.34;100.00
48796;BME280;34607;48.520;-1.330;2023-02-21T19:16:34;100039.94;;;10.30;100.00
48796;BME280;34607;48.520;-1.330;2023-02-21T19:19:01;100034.66;;;10.24;100.00
48796;BME280;34607;48.520;-1.330;2023-02-21T19:21:29;100039.88;;;10.27;100.00
48796;BME280;34607;48.520;-1.330;2023-02-21T19:23:58;100035.56;;;10.25;100.00
48796;BME280;34607;48.520;-1.330;2023-02-21T19:26:27;100034.50;;;10.12;100.00
48796;BME280;34607;48.520;-1.330;2023-02-21T19:28:54;100036.97;;;10.01;100.00
48796;BME280;34607;48.520;-1.330;2023-02-21T19:31:21;100041.19;;;9.94;100.00
48796;BME280;34607;48.520;-1.330;2023-02-21T19:33:48;100034.19;;;9.87;100.00
48796;BME280;34607;48.520;-1.330;2023-02-21T19:36:15;100034.94;;;9.82;100.00
48796;BME280;34607;48.520;-1.330;2023-02-21T19:38:43;100046.97;;;9.78;100.00
48796;BME280;34607;48.520;-1.330;2023-02-21T19:41:11;100043.53;;;9.79;100.00
48796;BME280;34607;48.520;-1.330;2023-02-21T19:43:38;100037.56;;;9.83;100.00
48796;BME280;34607;48.520;-1.330;2023-02-21T19:46:05;100015.06;;;9.76;100.00
48796;BME280;34607;48.520;-1.330;2023-02-21T19:48:33;100020.38;;;9.88;100.00
48796;BME280;34607;48.520;-1.330;2023-02-21T19:51:00;100022.16;;;9.89;100.00
48796;BME280;34607;48.520;-1.330;2023-02-21T19:53:27;100018.53;;;9.78;100.00
48796;BME280;34607;48.520;-1.330;2023-02-21T19:55:54;100002.78;;;9.63;100.00
48796;BME280;34607;48.520;-1.330;2023-02-21T19:58:22;100014.91;;;9.65;100.00
48796;BME280;34607;48.520;-1.330;2023-02-21T20:00:49;100020.88;;;9.60;100.00
48796;BME280;34607;48.520;-1.330;2023-02-21T20:03:17;100018.13;;;9.50;100.00
48796;BME280;34607;48.520;-1.330;2023-02-21T20:05:44;100026.63;;;9.42;100.00
48796;BME280;34607;48.520;-1.330;2023-02-21T20:08:11;100004.81;;;9.24;100.00
48796;BME280;34607;48.520;-1.330;2023-02-21T20:10:38;100041.16;;;9.36;100.00
48796;BME280;34607;48.520;-1.330;2023-02-21T20:13:05;100034.22;;;9.32;100.00
48796;BME280;34607;48.520;-1.330;2023-02-21T20:15:35;100028.91;;;9.25;100.00
48796;BME280;34607;48.520;-1.330;2023-02-21T20:18:02;100041.94;;;9.31;100.00
48796;BME280;34607;48.520;-1.330;2023-02-21T20:20:29;100047.97;;;9.31;100.00
48796;BME280;34607;48.520;-1.330;2023-02-21T20:22:57;100033.34;;;9.32;100.00
48796;BME280;34607;48.520;-1.330;2023-02-21T20:25:26;100036.66;;;9.25;100.00
48796;BME280;34607;48.520;-1.330;2023-02-21T20:27:53;100048.00;;;9.33;100.00
48796;BME280;34607;48.520;-1.330;2023-02-21T20:30:21;100054.81;;;9.28;100.00
48796;BME280;34607;48.520;-1.330;2023-02-21T20:32:49;100060.00;;;9.29;100.00
48796;BME280;34607;48.520;-1.330;2023-02-21T20:35:18;100041.75;;;9.18;100.00
48796;BME280;34607;48.520;-1.330;2023-02-21T20:37:45;100051.34;;;9.26;100.00
48796;BME280;34607;48.520;-1.330;2023-02-21T20:40:12;100045.28;;;9.24;100.00
48796;BME280;34607;48.520;-1.330;2023-02-21T20:42:40;100032.13;;;9.11;100.00
48796;BME280;34607;48.520;-1.330;2023-02-21T20:45:10;100052.22;;;9.28;100.00
48796;BME280;34607;48.520;-1.330;2023-02-21T20:47:37;100053.13;;;9.30;100.00
48796;BME280;34607;48.520;-1.330;2023-02-21T20:50:06;100056.53;;;9.27;100.00
48796;BME280;34607;48.520;-1.330;2023-02-21T20:52:34;100052.13;;;9.22;100.00
48796;BME280;34607;48.520;-1.330;2023-02-21T20:55:01;100050.41;;;9.21;100.00
48796;BME280;34607;48.520;-1.330;2023-02-21T20:57:28;100053.78;;;9.18;100.00
48796;BME280;34607;48.520;-1.330;2023-02-21T20:59:55;100062.41;;;9.18;100.00
48796;BME280;34607;48.520;-1.330;2023-02-21T21:02:22;100059.84;;;9.20;100.00
48796;BME280;34607;48.520;-1.330;2023-02-21T21:04:50;100064.25;;;9.26;100.00
48796;BME280;34607;48.520;-1.330;2023-02-21T21:07:20;100053.03;;;9.24;100.00
48796;BME280;34607;48.520;-1.330;2023-02-21T21:09:49;100062.50;;;9.25;100.00
48796;BME280;34607;48.520;-1.330;2023-02-21T21:12:18;100050.44;;;9.24;100.00
48796;BME280;34607;48.520;-1.330;2023-02-21T21:14:49;100049.56;;;9.23;100.00
48796;BME280;34607;48.520;-1.330;2023-02-21T21:17:19;100050.31;;;9.16;100.00
48796;BME280;34607;48.520;-1.330;2023-02-21T21:19:47;100047.75;;;9.17;100.00
48796;BME280;34607;48.520;-1.330;2023-02-21T21:22:16;100048.66;;;9.21;100.00
48796;BME280;34607;48.520;-1.330;2023-02-21T21:24:45;100054.81;;;9.28;100.00
48796;BME280;34607;48.520;-1.330;2023-02-21T21:27:12;100053.94;;;9.27;100.00
48796;BME280;34607;48.520;-1.330;2023-02-21T21:29:42;100065.91;;;9.22;100.00
48796;BME280;34607;48.520;-1.330;2023-02-21T21:32:10;100069.34;;;9.21;100.00
48796;BME280;34607;48.520;-1.330;2023-02-21T21:34:37;100043.34;;;9.10;100.00
48796;BME280;34607;48.520;-1.330;2023-02-21T21:37:06;100060.69;;;9.19;100.00